Karachi Weather



Karachi's Current Weather

Temprature 22o scattered clouds

scattered clouds

Rain: 0 %

Min Temprature22o
Max Temprature22o
Humidity73
Wind Speed2.6 m/h
Sun Rise06:57:09
Sun Set18:32:18
Current Time: 27-Feb-2020 00:07:30
Lat/Lon: 24.91, 67.08




Karachi's Geo Location



Karachi's Weather Forecast

Time Overall Temp Min Temp Max Temp Humidity Wind Speed Rain
27-Feb-2020 (Thu)
02:00:00 clear sky 20.830 20.210 20.830 80 2.88 m/h 0 %
05:00:00 clear sky 20.440 19.980 20.440 82 3.81 m/h 0 %
08:00:00 clear sky 21.930 21.620 21.930 69 3.14 m/h 0 %
11:00:00 scattered clouds 29.410 29.260 29.410 29 6.82 m/h 0 %
14:00:00 broken clouds 30.500 30.500 30.500 25 8.35 m/h 0 %
17:00:00 broken clouds 27.360 27.360 27.360 34 7.44 m/h 0 %
20:00:00 overcast clouds 21.530 21.530 21.530 74 4.64 m/h 0 %
23:00:00 broken clouds 20.610 20.610 20.610 82 3.85 m/h 0 %
28-Feb-2020 (Fri)
02:00:00 broken clouds 21.000 21.000 21.000 82 3.73 m/h 0 %
05:00:00 broken clouds 20.460 20.460 20.460 88 4.59 m/h 0 %
08:00:00 overcast clouds 21.870 21.870 21.870 82 4.54 m/h 0 %
11:00:00 broken clouds 28.060 28.060 28.060 47 4.85 m/h 0 %
14:00:00 broken clouds 30.380 30.380 30.380 38 6.19 m/h 0 %
17:00:00 scattered clouds 27.120 27.120 27.120 51 6.03 m/h 0 %
20:00:00 clear sky 21.850 21.850 21.850 81 4.26 m/h 0 %
23:00:00 clear sky 20.910 20.910 20.910 87 3.01 m/h 0 %
29-Feb-2020 (Sat)
02:00:00 clear sky 20.210 20.210 20.210 79 3.33 m/h 0 %
05:00:00 clear sky 18.560 18.560 18.560 87 1.88 m/h 0 %
08:00:00 clear sky 20.920 20.920 20.920 78 0.3 m/h 0 %
11:00:00 clear sky 27.610 27.610 27.610 34 3.42 m/h 0 %
14:00:00 clear sky 31.520 31.520 31.520 15 2.95 m/h 0 %
17:00:00 clear sky 29.190 29.190 29.190 17 6.99 m/h 0 %
20:00:00 clear sky 22.330 22.330 22.330 40 2.9 m/h 0 %
23:00:00 clear sky 21.070 21.070 21.070 58 3.68 m/h 0 %
01-Mar-2020 (Sun)
02:00:00 clear sky 19.660 19.660 19.660 58 2.16 m/h 0 %
05:00:00 clear sky 19.280 19.280 19.280 52 2.14 m/h 0 %
08:00:00 clear sky 21.060 21.060 21.060 43 1.86 m/h 0 %
11:00:00 clear sky 28.430 28.430 28.430 28 4.8 m/h 0 %
14:00:00 clear sky 31.620 31.620 31.620 19 3.42 m/h 0 %
17:00:00 clear sky 27.950 27.950 27.950 33 6.26 m/h 0 %
20:00:00 clear sky 22.580 22.580 22.580 61 4.42 m/h 0 %
23:00:00 clear sky 21.420 21.420 21.420 65 3.63 m/h 0 %
02-Mar-2020 (Mon)
02:00:00 clear sky 20.730 20.730 20.730 62 3.33 m/h 0 %
05:00:00 clear sky 19.120 19.120 19.120 62 1.99 m/h 0 %
08:00:00 clear sky 22.000 22.000 22.000 50 1.76 m/h 0 %
11:00:00 clear sky 28.740 28.740 28.740 23 1.25 m/h 0 %
14:00:00 clear sky 31.430 31.430 31.430 19 5.17 m/h 0 %
17:00:00 clear sky 27.780 27.780 27.780 28 7.65 m/h 0 %
20:00:00 clear sky 22.110 22.110 22.110 60 7.09 m/h 0 %
23:00:00 clear sky 20.970 20.970 20.970 66 4.48 m/h 0 %

Famous Cities (61)